Time;durP1;ratioP1;P1;durP2;ratioP2;P2;SDS_P1;SDS_P2;PMS_P1;PMS_P2;Temp;Humidity;BMP_temperature;BMP_pressure;BME280_temperature;BME280_humidity;BME280_pressure;Samples;Min_cycle;Max_cycle;Signal;HPM_P1;HPM_P2
2023/08/12 00:02:14;;;;;;;7.18;5.22;;;;;;;17.39;91.19;100190.09;5032362;28;20036;-83
2023/08/12 00:04:39;;;;;;;6.25;4.72;;;;;;;17.34;90.95;100184.28;5033038;28;20037;-83
2023/08/12 00:07:04;;;;;;;6.78;5.50;;;;;;;17.41;91.22;100196.94;5032726;28;20049;-83
2023/08/12 00:09:30;;;;;;;6.80;5.57;;;;;;;17.44;90.99;100207.28;4991117;28;20089;-83
2023/08/12 00:11:55;;;;;;;5.28;4.57;;;;;;;17.42;90.79;100203.91;4991079;28;20042;-83
2023/08/12 00:14:20;;;;;;;5.22;4.72;;;;;;;17.43;90.77;100208.22;4991289;28;20066;-83
2023/08/12 00:16:46;;;;;;;5.90;5.35;;;;;;;17.40;90.54;100210.19;4991598;28;20041;-83
2023/08/12 00:19:11;;;;;;;7.32;5.00;;;;;;;17.36;91.15;100208.72;4991145;28;20034;-83
2023/08/12 00:21:37;;;;;;;7.20;5.35;;;;;;;17.19;91.70;100184.38;4990953;28;20108;-83
2023/08/12 00:24:02;;;;;;;6.13;5.53;;;;;;;17.26;93.05;100197.94;4990743;28;20050;-83
2023/08/12 00:26:27;;;;;;;7.93;6.10;;;;;;;17.12;93.49;100179.59;4990933;28;20031;-83
2023/08/12 00:28:53;;;;;;;9.38;5.65;;;;;;;17.11;93.52;100193.72;4991188;28;20046;-83
2023/08/12 00:31:18;;;;;;;8.13;5.53;;;;;;;17.00;93.57;100173.34;4990727;28;20036;-84
2023/08/12 00:33:44;;;;;;;6.60;5.60;;;;;;;17.09;93.88;100192.94;4990742;28;20125;-83
2023/08/12 00:36:09;;;;;;;7.93;5.97;;;;;;;17.01;94.13;100185.53;4990564;28;20033;-83
2023/08/12 00:38:35;;;;;;;6.72;5.72;;;;;;;16.94;94.10;100165.84;4990627;28;20493;-83
2023/08/12 00:41:00;;;;;;;7.47;5.50;;;;;;;16.98;94.58;100180.50;4990412;28;20054;-83
2023/08/12 00:43:25;;;;;;;6.53;5.65;;;;;;;16.93;94.59;100172.03;4990742;28;20031;-83
2023/08/12 00:45:51;;;;;;;7.28;6.32;;;;;;;16.82;94.81;100156.97;4992709;28;20588;-84
2023/08/12 00:48:17;;;;;;;6.60;6.00;;;;;;;16.89;94.80;100178.44;5014300;28;20037;-83
2023/08/12 00:50:43;;;;;;;8.82;5.82;;;;;;;16.90;94.49;100159.94;5032353;28;20063;-83
2023/08/12 00:53:11;;;;;;;8.80;5.55;;;;;;;16.77;94.63;100138.00;5032163;28;20108;-83
2023/08/12 00:55:36;;;;;;;7.75;5.75;;;;;;;16.98;94.64;100172.59;5014499;28;20025;-83
2023/08/12 00:58:03;;;;;;;7.57;6.53;;;;;;;16.83;94.96;100144.66;5031908;28;20112;-83
2023/08/12 01:00:28;;;;;;;6.43;5.78;;;;;;;16.75;94.97;100139.88;5031976;28;20025;-83
2023/08/12 01:02:56;;;;;;;6.60;5.70;;;;;;;16.78;94.95;100141.47;5031988;28;20071;-83
2023/08/12 01:05:22;;;;;;;9.45;6.10;;;;;;;16.72;94.92;100134.75;5031763;28;20473;-83
2023/08/12 01:07:48;;;;;;;7.00;5.72;;;;;;;16.83;95.15;100156.00;5014395;28;20030;-83
2023/08/12 01:10:15;;;;;;;6.57;5.93;;;;;;;16.79;94.97;100143.16;5031856;28;20029;-83
2023/08/12 01:12:56;;;;;;;7.88;6.00;;;;;;;16.79;94.64;100145.78;5014326;28;20468;-83
2023/08/12 01:15:23;;;;;;;9.38;6.22;;;;;;;16.88;94.96;100161.81;5013919;28;20396;-83
2023/08/12 01:17:52;;;;;;;5.97;5.38;;;;;;;16.78;94.75;100128.31;5032128;28;20504;-83
2023/08/12 01:20:24;;;;;;;7.50;6.22;;;;;;;16.83;94.82;100136.75;5031745;28;20033;-83
2023/08/12 01:23:08;;;;;;;7.72;6.82;;;;;;;16.86;94.79;100150.56;5031926;28;20115;-83
2023/08/12 01:25:33;;;;;;;11.15;6.90;;;;;;;16.80;95.09;100150.94;5031856;28;20488;-83
2023/08/12 01:27:59;;;;;;;10.65;6.95;;;;;;;16.81;95.18;100152.66;5032178;28;20040;-83
2023/08/12 01:30:24;;;;;;;11.32;6.65;;;;;;;16.77;95.19;100152.91;5031812;28;20431;-83
2023/08/12 01:33:15;;;;;;;8.02;6.28;;;;;;;16.69;95.32;100143.72;5031955;28;20029;-83
2023/08/12 01:35:50;;;;;;;8.33;6.37;;;;;;;16.70;95.34;100147.19;5031889;28;20060;-83
2023/08/12 01:38:18;;;;;;;7.78;6.75;;;;;;;16.78;95.06;100147.56;5013735;28;20026;-83
2023/08/12 01:40:45;;;;;;;7.45;6.07;;;;;;;16.81;95.16;100147.38;5014053;28;20021;-83
2023/08/12 01:43:11;;;;;;;7.15;6.07;;;;;;;16.69;95.04;100132.34;5031617;28;20112;-83
2023/08/12 01:45:37;;;;;;;7.43;6.70;;;;;;;16.46;95.03;100095.19;5009294;28;20045;-83
2023/08/12 01:48:03;;;;;;;8.50;6.72;;;;;;;16.74;95.17;100130.31;5009299;28;20060;-83
2023/08/12 01:50:28;;;;;;;7.72;5.80;;;;;;;16.59;94.91;100112.84;5009236;28;20049;-83
2023/08/12 01:52:54;;;;;;;7.15;6.13;;;;;;;16.57;95.11;100106.84;5009485;28;20041;-83
2023/08/12 01:55:19;;;;;;;6.88;6.03;;;;;;;16.77;95.13;100134.50;5009276;28;20105;-83
2023/08/12 01:57:45;;;;;;;7.53;6.72;;;;;;;16.64;94.66;100102.84;4992983;28;20073;-83
2023/08/12 02:00:10;;;;;;;8.63;6.30;;;;;;;16.49;94.63;100083.66;5009096;28;20052;-83
2023/08/12 02:02:35;;;;;;;7.80;6.40;;;;;;;16.72;94.56;100111.09;4992954;28;20161;-83
2023/08/12 02:05:01;;;;;;;6.82;6.15;;;;;;;16.65;94.37;100104.56;5009379;28;20037;-83
2023/08/12 02:07:26;;;;;;;6.57;5.97;;;;;;;16.74;94.51;100126.81;5009140;28;20029;-83
2023/08/12 02:09:51;;;;;;;9.15;6.20;;;;;;;16.79;94.10;100130.84;5009348;28;20037;-84
2023/08/12 02:12:17;;;;;;;7.85;6.20;;;;;;;16.75;94.16;100129.34;5009048;28;20046;-83
2023/08/12 02:14:42;;;;;;;9.25;6.53;;;;;;;16.84;94.17;100135.81;5009294;28;20034;-83
2023/08/12 02:17:08;;;;;;;7.38;6.60;;;;;;;16.88;93.71;100135.50;5024791;28;20120;-83
2023/08/12 02:19:33;;;;;;;9.35;7.05;;;;;;;16.76;93.78;100114.41;5031297;28;20388;-83
2023/08/12 02:22:00;;;;;;;7.82;6.55;;;;;;;16.91;93.44;100140.56;5031244;28;20026;-83
2023/08/12 02:24:25;;;;;;;7.30;6.18;;;;;;;16.87;93.48;100125.94;5033004;28;20036;-83
2023/08/12 02:26:50;;;;;;;7.50;6.25;;;;;;;16.75;93.71;100108.31;5035111;28;20025;-83
2023/08/12 02:29:16;;;;;;;8.48;6.50;;;;;;;16.87;93.62;100132.97;5034634;28;20110;-83
2023/08/12 02:31:41;;;;;;;7.10;6.15;;;;;;;16.83;93.40;100132.34;5034906;28;20021;-83
2023/08/12 02:34:07;;;;;;;7.65;6.20;;;;;;;16.86;93.26;100126.88;5034605;28;20479;-83
2023/08/12 02:36:32;;;;;;;7.88;6.28;;;;;;;16.90;93.32;100136.25;5034702;28;20025;-83
2023/08/12 02:38:58;;;;;;;9.90;6.53;;;;;;;16.83;93.21;100119.19;5035198;28;20033;-83
2023/08/12 02:41:23;;;;;;;8.93;7.00;;;;;;;16.86;93.56;100128.66;5034563;28;20456;-83
2023/08/12 02:43:48;;;;;;;6.90;6.20;;;;;;;16.79;93.76;100117.69;5034824;28;20076;-83
2023/08/12 02:46:15;;;;;;;8.00;6.90;;;;;;;16.83;93.41;100118.34;5034520;28;20025;-83
2023/08/12 02:48:41;;;;;;;7.80;7.03;;;;;;;16.68;93.20;100092.03;5034504;28;20033;-83
2023/08/12 02:51:06;;;;;;;6.65;6.03;;;;;;;16.84;93.39;100118.22;5034130;28;20037;-83
2023/08/12 02:53:31;;;;;;;7.88;6.57;;;;;;;16.79;93.24;100111.59;5034646;28;20032;-83
2023/08/12 02:55:57;;;;;;;7.07;6.40;;;;;;;16.80;92.97;100113.25;4992420;28;20034;-83
2023/08/12 02:58:22;;;;;;;6.35;5.72;;;;;;;16.68;93.23;100092.03;4992643;28;20138;-83
2023/08/12 03:00:47;;;;;;;8.55;6.07;;;;;;;16.70;92.82;100099.84;4992572;28;20050;-83
2023/08/12 03:03:13;;;;;;;9.60;6.88;;;;;;;16.85;92.37;100124.31;4992614;28;20466;-83
2023/08/12 03:05:38;;;;;;;7.15;6.45;;;;;;;16.87;92.45;100115.41;4992307;28;20085;-83
2023/08/12 03:08:04;;;;;;;6.35;5.75;;;;;;;16.89;92.54;100115.28;4992442;28;20619;-83
2023/08/12 03:10:30;;;;;;;8.77;6.28;;;;;;;16.92;92.53;100112.47;4992092;28;20529;-83
2023/08/12 03:12:56;;;;;;;6.20;5.60;;;;;;;16.93;92.83;100125.50;4976022;28;20037;-83
2023/08/12 03:15:21;;;;;;;6.85;5.57;;;;;;;16.77;92.64;100092.41;4992094;28;20120;-83
2023/08/12 03:17:47;;;;;;;6.95;5.75;;;;;;;16.81;92.73;100101.78;4992552;28;20038;-83
2023/08/12 03:20:12;;;;;;;5.88;5.38;;;;;;;16.70;92.47;100092.78;4992086;28;20026;-83
2023/08/12 03:22:38;;;;;;;7.57;6.22;;;;;;;16.85;92.47;100119.91;4992201;28;20065;-83
2023/08/12 03:25:04;;;;;;;6.68;5.97;;;;;;;16.83;92.29;100102.56;4992145;28;20041;-84
2023/08/12 03:27:30;;;;;;;6.55;5.93;;;;;;;16.80;92.55;100108.84;5005112;28;20415;-83
2023/08/12 03:29:55;;;;;;;6.72;6.07;;;;;;;16.76;92.28;100096.00;5033870;28;20025;-83
2023/08/12 03:32:21;;;;;;;6.45;5.65;;;;;;;16.81;92.02;100113.19;5015532;28;20040;-83
2023/08/12 03:34:46;;;;;;;6.72;5.80;;;;;;;16.84;91.86;100098.97;5015457;28;20412;-83
2023/08/12 03:37:11;;;;;;;6.43;5.75;;;;;;;16.93;92.07;100117.63;5032970;28;20031;-83
2023/08/12 03:39:37;;;;;;;7.13;6.35;;;;;;;16.91;92.02;100108.16;5033714;28;20060;-83
2023/08/12 03:42:02;;;;;;;8.93;6.70;;;;;;;16.95;91.44;100114.91;5015878;28;20044;-83
2023/08/12 03:44:27;;;;;;;6.55;5.78;;;;;;;16.89;91.55;100107.41;5015644;28;20032;-83
2023/08/12 03:46:53;;;;;;;7.90;6.05;;;;;;;16.92;91.63;100101.94;5033447;28;20119;-83
2023/08/12 03:49:18;;;;;;;10.35;7.28;;;;;;;16.72;91.69;100079.53;5033049;28;20120;-83
2023/08/12 03:51:43;;;;;;;6.53;5.93;;;;;;;16.85;91.48;100093.59;5033615;28;20121;-83
2023/08/12 03:54:09;;;;;;;6.60;5.93;;;;;;;16.83;91.91;100095.50;5033369;28;20457;-83
2023/08/12 03:56:34;;;;;;;6.43;5.60;;;;;;;16.85;91.70;100092.75;5015729;28;20477;-83
2023/08/12 03:58:59;;;;;;;8.27;5.85;;;;;;;16.87;91.59;100098.78;5033405;28;20056;-83
2023/08/12 04:01:25;;;;;;;8.07;5.60;;;;;;;16.94;91.66;100095.66;5032942;28;20028;-83
2023/08/12 04:03:50;;;;;;;6.93;5.97;;;;;;;16.94;91.53;100095.66;5033181;28;20116;-83
2023/08/12 04:06:16;;;;;;;7.50;6.18;;;;;;;17.09;91.64;100125.34;5032728;28;20361;-83
2023/08/12 04:08:41;;;;;;;6.45;5.70;;;;;;;17.00;91.35;100102.28;5033021;28;20029;-83
2023/08/12 04:11:06;;;;;;;6.28;5.68;;;;;;;17.03;91.95;100096.00;5033154;28;20030;-83
2023/08/12 04:13:32;;;;;;;6.80;6.13;;;;;;;17.18;91.45;100118.63;5032829;28;20079;-83
2023/08/12 04:15:57;;;;;;;6.60;5.55;;;;;;;17.22;91.20;100112.22;5015184;28;20105;-83
2023/08/12 04:18:22;;;;;;;7.57;6.22;;;;;;;17.15;90.94;100082.84;5014923;28;20040;-83
2023/08/12 04:20:50;;;;;;;6.28;5.68;;;;;;;17.34;91.19;100100.03;5032677;28;20104;-83
2023/08/12 04:23:15;;;;;;;7.60;6.38;;;;;;;17.48;90.75;100088.56;5032765;28;20083;-84
2023/08/12 04:25:45;;;;;;;7.68;5.88;;;;;;;17.85;89.38;100100.91;5032873;28;20025;-83
2023/08/12 04:28:10;;;;;;;7.25;5.90;;;;;;;18.05;87.94;100094.25;5032761;28;20034;-83
2023/08/12 04:30:41;;;;;;;7.13;6.43;;;;;;;18.31;87.30;100108.22;5032659;28;20435;-83
2023/08/12 04:33:06;;;;;;;8.75;6.43;;;;;;;18.59;86.63;100103.59;5032587;28;20034;-83
2023/08/12 04:35:32;;;;;;;8.07;6.40;;;;;;;18.63;85.84;100090.06;5032237;28;20030;-83
2023/08/12 04:37:57;;;;;;;6.97;6.15;;;;;;;18.82;85.11;100097.50;5014879;28;20036;-83
2023/08/12 04:40:23;;;;;;;8.30;5.97;;;;;;;19.11;83.50;100076.84;5014507;28;20021;-83
2023/08/12 04:42:48;;;;;;;6.22;5.57;;;;;;;19.81;81.03;100096.25;5032530;28;20025;-83
2023/08/12 04:45:13;;;;;;;8.13;6.15;;;;;;;19.76;80.48;100095.72;5032150;28;20025;-83
2023/08/12 04:47:39;;;;;;;6.90;6.30;;;;;;;19.63;80.91;100104.59;5032029;28;20022;-83
2023/08/12 04:50:06;;;;;;;7.95;5.05;;;;;;;19.52;81.77;100109.84;5032017;28;20459;-83
2023/08/12 04:52:31;;;;;;;6.68;5.40;;;;;;;19.65;82.41;100123.00;5014418;28;20029;-84
2023/08/12 04:54:57;;;;;;;5.40;4.78;;;;;;;19.71;82.27;100101.38;5014658;28;20029;-83
2023/08/12 04:57:22;;;;;;;7.38;5.60;;;;;;;20.14;81.70;100112.09;5032044;28;20021;-84
2023/08/12 04:59:47;;;;;;;6.45;5.43;;;;;;;20.59;79.54;100121.78;5032103;28;20103;-84
2023/08/12 05:02:13;;;;;;;6.70;4.63;;;;;;;21.17;77.28;100104.59;5031905;28;20017;-84
2023/08/12 05:04:38;;;;;;;8.82;5.40;;;;;;;22.02;74.61;100079.69;5014605;28;20431;-84
2023/08/12 05:07:04;;;;;;;5.80;5.00;;;;;;;23.29;71.11;100109.94;5032188;28;20017;-84
2023/08/12 05:09:29;;;;;;;8.38;5.40;;;;;;;23.80;69.08;100079.47;5031933;28;20035;-84
2023/08/12 05:11:54;;;;;;;5.68;5.07;;;;;;;23.75;68.76;100082.56;5031979;28;20379;-84
2023/08/12 05:14:20;;;;;;;5.93;4.78;;;;;;;23.51;69.60;100100.81;5032152;28;20036;-84
2023/08/12 05:16:45;;;;;;;6.63;4.70;;;;;;;23.29;70.85;100105.47;5032087;28;20029;-83
2023/08/12 05:19:10;;;;;;;5.28;4.80;;;;;;;23.06;70.72;100086.34;5014217;28;20029;-84
2023/08/12 05:21:36;;;;;;;5.72;4.78;;;;;;;22.76;71.23;100060.75;5014049;28;20075;-84
2023/08/12 05:24:01;;;;;;;6.13;5.35;;;;;;;22.88;70.89;100104.78;5031790;28;20109;-83
2023/08/12 05:26:26;;;;;;;5.30;4.72;;;;;;;22.70;71.65;100079.03;5031578;28;20049;-83
2023/08/12 05:28:52;;;;;;;7.53;4.88;;;;;;;23.16;70.44;100068.56;5031828;28;20534;-84
2023/08/12 05:31:17;;;;;;;5.07;4.32;;;;;;;23.69;69.67;100082.34;5031603;28;20025;-84
2023/08/12 05:33:42;;;;;;;5.63;4.60;;;;;;;23.63;69.87;100089.03;5031706;28;20022;-84
2023/08/12 05:36:08;;;;;;;5.68;4.65;;;;;;;23.46;69.95;100081.78;5031963;28;20029;-84
2023/08/12 05:38:34;;;;;;;5.53;4.80;;;;;;;23.58;69.58;100081.47;5031604;28;20036;-84
2023/08/12 05:40:59;;;;;;;5.40;4.90;;;;;;;23.83;69.19;100084.50;5013906;28;20030;-84
2023/08/12 05:43:24;;;;;;;6.22;4.75;;;;;;;24.01;68.11;100071.25;5031526;28;20105;-84
2023/08/12 05:45:50;;;;;;;5.10;4.60;;;;;;;24.97;66.52;100080.47;5032001;28;20053;-84
2023/08/12 05:48:15;;;;;;;7.90;4.50;;;;;;;25.23;64.78;100080.53;5031586;28;20063;-84
2023/08/12 05:50:40;;;;;;;5.30;4.75;;;;;;;24.71;65.89;100067.06;5031074;28;20045;-84
2023/08/12 05:53:06;;;;;;;6.55;4.35;;;;;;;24.52;66.81;100093.84;5031764;28;20125;-84
2023/08/12 05:55:34;;;;;;;4.93;4.20;;;;;;;24.19;67.29;100066.84;5031484;28;20525;-83
2023/08/12 05:57:59;;;;;;;5.30;4.80;;;;;;;24.09;68.04;100082.00;5031654;28;20022;-84
2023/08/12 06:00:25;;;;;;;6.32;4.25;;;;;;;23.72;67.62;100087.34;4973302;28;20537;-84
2023/08/12 06:02:50;;;;;;;6.60;4.45;;;;;;;23.54;68.60;100079.25;4974111;28;20576;-84
2023/08/12 06:05:15;;;;;;;6.15;4.40;;;;;;;23.62;68.56;100080.22;4957911;28;20038;-84
2023/08/12 06:07:41;;;;;;;7.78;5.18;;;;;;;23.70;67.99;100073.38;4973892;28;20478;-83
2023/08/12 06:10:06;;;;;;;4.28;3.88;;;;;;;23.81;68.63;100062.56;4974125;28;20047;-84
2023/08/12 06:12:32;;;;;;;6.00;4.70;;;;;;;24.14;68.01;100039.81;4973944;28;20027;-83
2023/08/12 06:14:57;;;;;;;4.05;3.65;;;;;;;24.62;66.66;100078.66;4974214;28;20045;-84
2023/08/12 06:17:23;;;;;;;4.43;4.03;;;;;;;24.80;66.39;100078.66;4973630;28;20026;-84
2023/08/12 06:19:48;;;;;;;4.35;3.95;;;;;;;25.01;66.13;100062.34;4973764;28;20379;-84
2023/08/12 06:22:13;;;;;;;7.38;3.40;;;;;;;25.36;64.59;100074.78;4973842;28;20035;-84
2023/08/12 06:24:39;;;;;;;6.35;3.58;;;;;;;25.51;63.46;100064.38;4973503;28;20111;-84
2023/08/12 06:27:04;;;;;;;5.57;3.80;;;;;;;25.47;63.10;100047.03;4957635;28;20066;-84
2023/08/12 06:29:30;;;;;;;5.25;3.80;;;;;;;25.63;63.50;100063.13;4973599;28;20090;-84
2023/08/12 06:31:55;;;;;;;4.63;3.67;;;;;;;25.58;61.88;100062.78;5017535;28;20376;-84
2023/08/12 06:34:20;;;;;;;4.47;3.88;;;;;;;25.52;63.17;100039.38;5016786;28;20036;-84
2023/08/12 06:36:46;;;;;;;4.00;3.63;;;;;;;25.80;62.42;100062.25;5034985;28;20032;-84
2023/08/12 06:39:11;;;;;;;7.53;4.30;;;;;;;25.92;62.62;100059.31;5017085;28;20025;-83
2023/08/12 06:41:37;;;;;;;4.45;3.78;;;;;;;26.02;61.60;100050.16;5016729;28;20401;-84
2023/08/12 06:44:04;;;;;;;6.65;3.92;;;;;;;26.30;61.53;100057.94;5034685;28;20032;-84
2023/08/12 06:46:30;;;;;;;4.32;3.80;;;;;;;26.38;60.77;100060.63;5034298;28;20021;-84
2023/08/12 06:48:56;;;;;;;3.92;3.40;;;;;;;26.34;60.99;100033.41;5034433;28;20050;-84
2023/08/12 06:51:21;;;;;;;5.85;4.00;;;;;;;26.68;61.21;100055.69;5034472;28;20431;-84
2023/08/12 06:53:46;;;;;;;5.00;3.85;;;;;;;26.68;60.52;100048.50;5034472;28;20037;-83
2023/08/12 06:56:12;;;;;;;4.70;4.22;;;;;;;26.47;60.33;100042.81;5016685;28;20032;-84
2023/08/12 06:58:37;;;;;;;4.40;4.00;;;;;;;26.52;61.48;100049.31;5034082;28;20026;-84
2023/08/12 07:01:02;;;;;;;5.43;4.25;;;;;;;26.53;61.80;100048.31;5034172;28;20052;-83
2023/08/12 07:03:28;;;;;;;4.32;3.92;;;;;;;26.59;61.92;100047.66;5034051;28;20395;-84
2023/08/12 07:05:54;;;;;;;4.38;3.50;;;;;;;26.73;61.39;100051.50;5034451;28;20091;-84
2023/08/12 07:08:19;;;;;;;6.18;3.92;;;;;;;26.46;62.54;100033.09;5034132;28;20037;-84
2023/08/12 07:10:45;;;;;;;5.22;3.72;;;;;;;26.74;62.14;100044.34;5015984;28;20111;-84
2023/08/12 07:13:10;;;;;;;5.28;3.80;;;;;;;26.81;62.08;100032.81;5016395;28;20033;-84
2023/08/12 07:15:36;;;;;;;4.60;3.75;;;;;;;27.11;62.41;100034.00;5033772;28;20465;-84
2023/08/12 07:18:01;;;;;;;4.50;3.80;;;;;;;27.64;61.19;100029.00;5033942;28;20063;-82
2023/08/12 07:20:27;;;;;;;4.13;3.72;;;;;;;28.45;61.04;100043.09;5033893;28;20060;-82
2023/08/12 07:22:52;;;;;;;4.68;4.22;;;;;;;29.55;58.07;100041.63;5034012;28;20095;-82
2023/08/12 07:25:17;;;;;;;5.15;3.88;;;;;;;30.63;55.28;100039.22;5016148;28;20034;-82
2023/08/12 07:27:43;;;;;;;4.10;3.70;;;;;;;31.62;53.63;100034.66;5033632;28;20025;-82
2023/08/12 07:30:09;;;;;;;4.32;3.92;;;;;;;32.66;52.44;100041.72;5016010;28;20403;-82
2023/08/12 07:32:36;;;;;;;3.95;3.35;;;;;;;33.50;51.17;100024.84;5033412;28;20025;-82
2023/08/12 07:35:02;;;;;;;5.00;3.20;;;;;;;34.25;50.22;100036.84;5034194;28;20030;-83
2023/08/12 07:37:29;;;;;;;5.45;3.92;;;;;;;34.72;48.60;100037.41;5015618;28;20354;-82
2023/08/12 07:39:54;;;;;;;3.42;3.08;;;;;;;34.72;48.71;100028.44;5033640;28;20082;-82
2023/08/12 07:42:20;;;;;;;5.45;4.03;;;;;;;35.65;48.16;100019.47;5015922;28;20556;-82
2023/08/12 07:44:45;;;;;;;3.92;3.47;;;;;;;35.94;46.74;100020.56;5033076;28;20026;-82
2023/08/12 07:47:11;;;;;;;4.55;3.83;;;;;;;36.59;47.12;100037.03;5033726;28;20029;-83
2023/08/12 07:49:38;;;;;;;3.65;3.35;;;;;;;37.28;46.27;100017.50;5015340;28;20400;-84
2023/08/12 07:52:03;;;;;;;3.97;3.67;;;;;;;37.63;44.70;100021.03;5033549;28;20030;-83
2023/08/12 07:54:29;;;;;;;5.13;3.60;;;;;;;37.12;45.46;100022.59;5033171;28;20031;-84
2023/08/12 07:56:54;;;;;;;5.07;3.85;;;;;;;37.36;45.65;100020.69;5015543;28;20373;-84
2023/08/12 07:59:20;;;;;;;4.85;3.33;;;;;;;37.38;44.74;100018.56;5033151;28;20492;-83
2023/08/12 08:01:45;;;;;;;5.53;3.70;;;;;;;36.85;45.52;100024.09;5033083;28;20022;-83
2023/08/12 08:04:11;;;;;;;3.70;3.30;;;;;;;36.52;46.29;100014.59;5015515;28;20036;-83
2023/08/12 08:06:36;;;;;;;3.63;3.35;;;;;;;36.66;45.83;100010.63;5033035;28;20384;-83
2023/08/12 08:09:03;;;;;;;4.15;3.55;;;;;;;36.44;45.68;100012.19;5033154;28;20036;-84
2023/08/12 08:11:29;;;;;;;4.43;3.10;;;;;;;36.50;46.50;100011.31;5015007;28;20087;-85
2023/08/12 08:13:54;;;;;;;5.40;3.42;;;;;;;36.74;46.27;100009.44;5015155;28;20038;-85
2023/08/12 08:16:20;;;;;;;4.40;3.53;;;;;;;36.70;45.72;100017.25;5033163;28;20035;-83
2023/08/12 08:18:45;;;;;;;3.50;3.20;;;;;;;36.44;46.31;99994.06;5032821;28;20029;-84
2023/08/12 08:21:10;;;;;;;3.90;3.00;;;;;;;36.00;46.19;100016.19;5032477;28;20104;-83
2023/08/12 08:23:35;;;;;;;4.07;3.00;;;;;;;35.08;47.08;100024.22;5032790;28;20038;-83
2023/08/12 08:26:01;;;;;;;4.65;3.15;;;;;;;33.58;47.42;100013.00;5014995;28;20056;-84
2023/08/12 08:28:26;;;;;;;6.03;3.20;;;;;;;32.58;50.04;99998.75;5032623;28;20038;-84
2023/08/12 08:30:51;;;;;;;2.90;2.67;;;;;;;31.72;50.63;100000.09;5015134;28;20037;-84
2023/08/12 08:33:17;;;;;;;3.25;2.95;;;;;;;30.98;52.05;99987.22;5032266;28;20091;-84
2023/08/12 08:35:42;;;;;;;5.35;3.03;;;;;;;30.44;53.38;99993.16;5032463;28;20068;-83
2023/08/12 08:38:08;;;;;;;3.83;2.90;;;;;;;29.80;54.40;100001.94;5014870;28;20034;-83
2023/08/12 08:40:33;;;;;;;4.05;3.10;;;;;;;28.98;55.23;99988.56;5014444;28;20116;-83
2023/08/12 08:43:03;;;;;;;4.05;3.65;;;;;;;28.71;57.49;99999.84;5032413;28;20029;-84
2023/08/12 08:45:31;;;;;;;4.50;3.05;;;;;;;28.45;57.69;100011.78;5014645;28;20021;-83
2023/08/12 08:47:59;;;;;;;3.20;2.90;;;;;;;27.95;58.59;99977.41;5032528;28;20388;-84
2023/08/12 08:50:25;;;;;;;4.65;3.20;;;;;;;27.79;59.47;100007.75;5032071;28;20045;-84
2023/08/12 08:52:51;;;;;;;4.15;3.75;;;;;;;27.58;60.16;100006.47;5014382;28;20389;-84
2023/08/12 08:55:17;;;;;;;3.55;3.25;;;;;;;27.55;60.34;100006.81;5032273;28;20053;-84
2023/08/12 08:57:44;;;;;;;4.22;3.83;;;;;;;27.47;60.41;100008.66;5014222;28;20026;-84
2023/08/12 09:00:11;;;;;;;5.45;3.30;;;;;;;27.33;61.46;100005.69;5032358;28;20380;-84
2023/08/12 09:02:37;;;;;;;3.38;2.95;;;;;;;27.25;61.93;100004.88;5032242;28;20022;-84
2023/08/12 09:05:04;;;;;;;3.22;2.90;;;;;;;27.18;61.65;100006.56;5014512;28;20036;-85
2023/08/12 09:07:31;;;;;;;4.40;3.22;;;;;;;27.13;62.17;99998.22;5014248;28;20025;-85
2023/08/12 09:10:00;;;;;;;3.63;3.33;;;;;;;27.01;62.32;99989.69;5014333;28;20378;-84
2023/08/12 09:12:26;;;;;;;6.50;3.95;;;;;;;27.10;63.54;100010.09;5031956;28;20025;-84
2023/08/12 09:14:51;;;;;;;3.95;3.20;;;;;;;27.00;63.12;99986.19;5031928;28;20116;-85
2023/08/12 09:17:17;;;;;;;4.88;3.38;;;;;;;27.00;63.06;99996.03;5014435;28;20025;-84
2023/08/12 09:19:42;;;;;;;4.15;3.45;;;;;;;26.81;62.93;99984.72;5031767;28;20568;-83
2023/08/12 09:22:11;;;;;;;4.10;3.20;;;;;;;26.79;63.59;99978.69;5013794;28;20030;-82
2023/08/12 09:24:36;;;;;;;6.95;3.53;;;;;;;26.86;63.67;99992.22;5031697;28;20033;-82
2023/08/12 09:27:02;;;;;;;3.83;3.53;;;;;;;26.79;63.69;99984.03;5031777;28;20044;-82
2023/08/12 09:29:32;;;;;;;5.28;3.40;;;;;;;26.75;63.79;99981.84;5014281;28;20087;-82
2023/08/12 09:32:10;;;;;;;3.47;3.10;;;;;;;26.79;64.07;99984.03;5032001;28;20038;-82
2023/08/12 09:34:36;;;;;;;4.75;3.25;;;;;;;26.76;64.58;99987.06;5033693;28;20034;-82
2023/08/12 09:37:01;;;;;;;3.42;3.08;;;;;;;26.73;64.78;99981.22;5035901;28;20021;-81
2023/08/12 09:39:29;;;;;;;4.30;3.10;;;;;;;26.66;64.48;99986.38;5018232;28;20535;-82
2023/08/12 09:41:55;;;;;;;3.80;3.40;;;;;;;26.53;64.95;99968.16;5035688;28;20028;-81
2023/08/12 09:44:22;;;;;;;4.63;3.53;;;;;;;26.68;65.41;99989.72;5035885;28;20416;-82
2023/08/12 09:46:47;;;;;;;3.88;3.50;;;;;;;26.71;65.43;99988.53;5035618;28;20044;-82
2023/08/12 09:49:13;;;;;;;5.95;3.45;;;;;;;26.75;65.17;99977.34;5035374;28;20416;-82
2023/08/12 09:51:40;;;;;;;3.45;3.15;;;;;;;26.74;65.06;99977.53;5017714;28;20033;-81
2023/08/12 09:54:08;;;;;;;3.88;3.47;;;;;;;26.66;65.60;99966.84;5017674;28;20026;-81
2023/08/12 09:56:37;;;;;;;3.85;3.22;;;;;;;26.64;65.39;99953.66;5035453;28;20488;-81
2023/08/12 09:59:07;;;;;;;3.70;3.40;;;;;;;26.77;65.45;99972.69;5035635;28;20029;-82
2023/08/12 10:01:33;;;;;;;3.25;2.97;;;;;;;26.78;65.28;99969.00;5017460;28;20022;-83
2023/08/12 10:03:59;;;;;;;3.38;3.08;;;;;;;26.68;65.18;99955.00;5035491;28;20063;-82
2023/08/12 10:06:25;;;;;;;7.03;3.28;;;;;;;26.57;65.79;99931.28;5035289;28;20381;-84
2023/08/12 10:08:51;;;;;;;3.42;3.13;;;;;;;26.75;65.38;99957.81;5017202;28;20036;-83
2023/08/12 10:11:17;;;;;;;7.07;3.17;;;;;;;26.75;65.74;99952.47;5035532;28;20029;-88
2023/08/12 10:13:43;;;;;;;3.45;3.05;;;;;;;26.76;65.52;99962.19;5017323;28;20040;-87
2023/08/12 10:16:10;;;;;;;2.83;2.63;;;;;;;26.66;65.82;99946.28;5017450;28;20041;-84
2023/08/12 10:18:38;;;;;;;4.45;3.65;;;;;;;26.62;65.54;99940.44;5035053;28;20041;-83
2023/08/12 10:21:04;;;;;;;4.60;3.00;;;;;;;26.73;65.90;99957.16;5017305;28;20389;-82
2023/08/12 10:23:30;;;;;;;4.22;3.50;;;;;;;26.58;66.47;99930.28;5035438;28;20017;-83
2023/08/12 10:25:57;;;;;;;4.20;3.13;;;;;;;26.58;66.00;99932.94;5017226;28;20026;-82
2023/08/12 10:28:23;;;;;;;5.38;3.30;;;;;;;26.61;66.53;99941.47;5034947;28;20032;-82
2023/08/12 10:30:48;;;;;;;3.60;3.28;;;;;;;26.57;66.27;99934.78;5016970;28;20025;-82
2023/08/12 10:33:18;;;;;;;3.38;3.08;;;;;;;26.53;66.14;99930.78;5034954;28;20491;-83
2023/08/12 10:35:48;;;;;;;4.82;3.50;;;;;;;26.47;66.17;99914.59;5034448;28;20021;-81
2023/08/12 10:38:17;;;;;;;5.30;3.60;;;;;;;26.64;64.94;99948.31;5017131;28;20037;-81
2023/08/12 10:40:43;;;;;;;5.68;3.47;;;;;;;26.61;66.02;99933.44;5034552;28;20107;-81
2023/08/12 10:43:08;;;;;;;3.85;3.22;;;;;;;26.64;66.10;99940.31;5034813;28;20057;-81
2023/08/12 10:45:47;;;;;;;4.32;3.03;;;;;;;26.51;65.87;99919.44;5034161;28;20021;-81
2023/08/12 10:48:20;;;;;;;5.72;3.50;;;;;;;26.69;66.34;99931.78;5034512;28;20434;-83
2023/08/12 10:50:49;;;;;;;4.93;3.92;;;;;;;26.78;66.57;99925.41;5016339;28;20057;-81
2023/08/12 10:53:30;;;;;;;4.43;3.17;;;;;;;26.86;66.38;99930.75;5034624;28;20104;-81
2023/08/12 10:56:00;;;;;;;3.72;3.35;;;;;;;26.84;66.27;99917.56;5034390;28;20037;-81
2023/08/12 10:58:45;;;;;;;4.85;3.00;;;;;;;26.68;66.72;99884.69;5034430;28;20063;-81
2023/08/12 11:01:18;;;;;;;3.53;3.22;;;;;;;26.79;66.41;99895.84;5016727;28;20064;-81
2023/08/12 11:03:44;;;;;;;3.72;3.42;;;;;;;26.75;66.25;99904.38;5016227;28;20021;-81
2023/08/12 11:06:12;;;;;;;3.40;3.10;;;;;;;26.72;65.95;99896.72;5034363;28;20083;-81
2023/08/12 11:08:46;;;;;;;3.35;2.88;;;;;;;26.83;65.81;99920.38;5016249;28;20021;-81
2023/08/12 11:11:23;;;;;;;4.00;3.60;;;;;;;26.67;66.53;99897.19;5034144;28;20477;-81
2023/08/12 11:13:56;;;;;;;4.75;3.08;;;;;;;26.60;66.51;99889.03;5034101;28;20029;-81
2023/08/12 11:16:38;;;;;;;4.97;3.05;;;;;;;26.50;67.05;99885.69;5016403;28;20025;-82
2023/08/12 11:19:03;;;;;;;;;;;;;;;26.56;66.62;99919.75;4992612;28;20041;-82
2023/08/12 11:21:29;;;;;;;5.22;3.45;;;;;;;26.50;65.78;99888.38;4992103;28;19914;-82
2023/08/12 11:23:56;;;;;;;6.85;3.42;;;;;;;26.66;65.89;99882.16;4991909;28;20517;-81